TimeAEST,TemperatureF,Dew PointF,Humidity,Sea Level PressureIn,VisibilityMPH,Wind Direction,Wind SpeedMPH,Gust SpeedMPH,PrecipitationIn,Events,Conditions,WindDirDegrees,DateUTC
12:00 AM,69,61,69,29.96,,North,3.5,,,,,0,2013-10-11 14:00:00
12:00 AM,69.8,60.8,73,29.95,6.2,North,3.5,-,N/A,,Unknown,360,2013-10-11 14:00:00
12:30 AM,73.4,62.6,69,29.95,6.2,NNE,6.9,-,N/A,,Unknown,20,2013-10-11 14:30:00
1:00 AM,73,63,63,29.95,,North,5.8,,,,,10,2013-10-11 15:00:00
1:00 AM,73.4,62.6,69,29.92,6.2,North,5.8,-,N/A,,Unknown,10,2013-10-11 15:00:00
1:30 AM,69.8,62.6,78,29.92,6.2,North,4.6,-,N/A,,Unknown,360,2013-10-11 15:30:00
2:00 AM,69.8,62.6,78,29.92,6.2,Calm,Calm,-,N/A,,Scattered Clouds,0,2013-10-11 16:00:00
2:30 AM,71.6,60.8,69,29.89,6.2,North,5.8,-,N/A,,Scattered Clouds,10,2013-10-11 16:30:00
3:00 AM,71,60,60,29.90,,NNE,5.8,,,,,20,2013-10-11 17:00:00
3:00 AM,71.6,60.8,69,29.89,6.2,NNE,5.8,-,N/A,,Unknown,20,2013-10-11 17:00:00
3:30 AM,68.0,60.8,78,29.89,6.2,Calm,Calm,-,N/A,,Scattered Clouds,0,2013-10-11 17:30:00
4:00 AM,67,61,76,29.92,,South,2.3,,,,,180,2013-10-11 18:00:00
4:00 AM,68.0,60.8,78,29.89,6.2,South,2.3,-,N/A,,Unknown,180,2013-10-11 18:00:00
4:30 AM,68.0,60.8,78,29.92,6.2,South,2.3,-,N/A,,Unknown,180,2013-10-11 18:30:00
5:00 AM,68.0,60.8,78,29.92,6.2,Calm,Calm,-,N/A,,Unknown,0,2013-10-11 19:00:00
5:30 AM,68.0,60.8,78,29.92,6.2,South,4.6,-,N/A,,Unknown,170,2013-10-11 19:30:00
6:00 AM,66,60,76,29.95,25,Calm,Calm,,,,Partly Cloudy,,2013-10-11 20:00:00
6:00 AM,66.2,60.8,83,29.95,6.2,Calm,Calm,-,N/A,,Partly Cloudy,0,2013-10-11 20:00:00
6:30 AM,66.2,59.0,78,29.95,6.2,Calm,Calm,-,N/A,,Partly Cloudy,0,2013-10-11 20:30:00
7:00 AM,73,61,58,29.98,,Calm,Calm,,,,,,2013-10-11 21:00:00
7:00 AM,73.4,60.8,65,29.95,6.2,Calm,Calm,-,N/A,,Partly Cloudy,0,2013-10-11 21:00:00
7:30 AM,77.0,57.2,50,29.98,6.2,North,6.9,-,N/A,,Partly Cloudy,10,2013-10-11 21:30:00
8:00 AM,78.8,57.2,47,29.98,6.2,NE,8.1,-,N/A,,Partly Cloudy,40,2013-10-11 22:00:00
8:30 AM,80.6,57.2,45,29.98,6.2,ENE,9.2,-,N/A,,Partly Cloudy,60,2013-10-11 22:30:00
9:00 AM,82,56,30,30.00,31,East,11.5,,,,Partly Cloudy,100,2013-10-11 23:00:00
9:00 AM,82.4,55.4,39,29.98,6.2,East,11.5,-,N/A,,Partly Cloudy,100,2013-10-11 23:00:00
9:30 AM,80.6,57.2,45,29.98,6.2,ENE,11.5,-,N/A,,Partly Cloudy,60,2013-10-11 23:30:00
10:00 AM,82,57,32,30.01,,NE,11.5,,,,,50,2013-10-12 00:00:00
10:00 AM,82.4,57.2,42,29.98,6.2,NE,11.5,-,N/A,,Partly Cloudy,50,2013-10-12 00:00:00
10:30 AM,82.4,57.2,42,29.98,6.2,ENE,13.8,-,N/A,,Partly Cloudy,60,2013-10-12 00:30:00
11:00 AM,82.4,59.0,45,29.98,6.2,ENE,13.8,-,N/A,,Partly Cloudy,70,2013-10-12 01:00:00
11:30 AM,82.4,57.2,42,29.95,6.2,ENE,17.3,-,N/A,,Partly Cloudy,70,2013-10-12 01:30:00
12:00 PM,83,56,29,29.96,31,ENE,16.1,,,,Partly Cloudy,70,2013-10-12 02:00:00
12:00 PM,82.4,55.4,39,29.95,-9999.0,ENE,16.1,-,N/A,,Clear,70,2013-10-12 02:00:00
12:30 PM,84.2,55.4,37,29.95,-9999.0,ENE,15.0,-,N/A,,Clear,70,2013-10-12 02:30:00
1:00 PM,84,55,27,29.95,,ENE,17.3,,,,,60,2013-10-12 03:00:00
1:00 PM,84.2,55.4,37,29.92,-9999.0,ENE,17.3,-,N/A,,Clear,60,2013-10-12 03:00:00
1:30 PM,84.2,57.2,40,29.92,6.2,ENE,19.6,-,N/A,,Partly Cloudy,70,2013-10-12 03:30:00
2:00 PM,82.4,59.0,45,29.92,6.2,NE,16.1,-,N/A,,Partly Cloudy,50,2013-10-12 04:00:00
2:30 PM,82.4,57.2,42,29.89,-9999.0,ENE,18.4,-,N/A,,Clear,60,2013-10-12 04:30:00
3:00 PM,83,58,32,29.90,28,NE,17.3,,,,Partly Cloudy,50,2013-10-12 05:00:00
3:00 PM,82.4,57.2,42,29.89,-9999.0,NE,17.3,-,N/A,,Clear,50,2013-10-12 05:00:00
3:30 PM,82.4,57.2,42,29.89,-9999.0,ENE,17.3,-,N/A,,Clear,70,2013-10-12 05:30:00
4:00 PM,82,57,32,29.92,,East,15.0,,,,,80,2013-10-12 06:00:00
4:00 PM,82.4,57.2,42,29.89,-9999.0,East,15.0,-,N/A,,Clear,80,2013-10-12 06:00:00
4:30 PM,80.6,57.2,45,29.89,-9999.0,ENE,15.0,-,N/A,,Clear,70,2013-10-12 06:30:00
5:00 PM,80.6,59.0,48,29.92,-9999.0,ENE,13.8,-,N/A,,Clear,60,2013-10-12 07:00:00
5:30 PM,78.8,59.0,51,29.92,6.2,ENE,15.0,-,N/A,,Partly Cloudy,70,2013-10-12 07:30:00
6:00 PM,78,60,43,29.94,25,ENE,12.7,,,,Partly Cloudy,60,2013-10-12 08:00:00
6:00 PM,78.8,59.0,51,29.92,6.2,ENE,12.7,-,N/A,,Partly Cloudy,60,2013-10-12 08:00:00
6:30 PM,77.0,59.0,54,29.95,6.2,NE,11.5,-,N/A,,Scattered Clouds,50,2013-10-12 08:30:00
7:00 PM,77,61,47,29.97,,ENE,11.5,,,,,60,2013-10-12 09:00:00
7:00 PM,77.0,60.8,57,29.95,6.2,ENE,11.5,-,N/A,,Scattered Clouds,60,2013-10-12 09:00:00
7:30 PM,77.0,60.8,57,29.95,6.2,ENE,10.4,-,N/A,,Scattered Clouds,60,2013-10-12 09:30:00
8:00 PM,77.0,62.6,61,29.95,6.2,NE,10.4,-,N/A,,Mostly Cloudy,50,2013-10-12 10:00:00
8:30 PM,77.0,62.6,61,29.98,6.2,NE,10.4,-,N/A,,Scattered Clouds,50,2013-10-12 10:30:00
9:00 PM,76,63,55,29.98,22,NE,6.9,,,,Partly Cloudy,40,2013-10-12 11:00:00
9:00 PM,77.0,62.6,61,29.98,6.2,NNE,6.9,-,N/A,,Scattered Clouds,30,2013-10-12 11:00:00
9:30 PM,77.0,64.4,65,29.98,6.2,NE,5.8,-,N/A,,Scattered Clouds,40,2013-10-12 11:30:00
10:00 PM,75,64,59,30.01,,North,5.8,,,,,350,2013-10-12 12:00:00
10:00 PM,75.2,64.4,69,29.98,6.2,North,5.8,-,N/A,,Scattered Clouds,350,2013-10-12 12:00:00
10:30 PM,75.2,62.6,65,29.98,6.2,NNE,8.1,-,N/A,,Partly Cloudy,30,2013-10-12 12:30:00
11:00 PM,77.0,62.6,61,29.98,6.2,NE,10.4,-,N/A,,Unknown,50,2013-10-12 13:00:00
11:30 PM,77.0,62.6,61,29.98,6.2,NE,11.5,-,N/A,,Scattered Clouds,50,2013-10-12 13:30:00